createdAt,value
2023-04-19T00:00:45.234Z,18.12
2023-04-19T00:03:12.129Z,18.11
2023-04-19T00:05:39.576Z,18.12
2023-04-19T00:08:06.403Z,18.10
2023-04-19T00:10:33.128Z,18.02
2023-04-19T00:12:59.653Z,17.99
2023-04-19T00:15:26.292Z,18.02
2023-04-19T00:17:53.044Z,17.92
2023-04-19T00:20:20.287Z,17.97
2023-04-19T00:22:47.118Z,17.98
2023-04-19T00:25:13.759Z,17.91
2023-04-19T00:27:40.319Z,17.91
2023-04-19T00:30:06.858Z,17.85
2023-04-19T00:32:33.442Z,17.80
2023-04-19T00:35:00.359Z,17.81
2023-04-19T00:37:27.747Z,17.82
2023-04-19T00:39:54.446Z,17.76
2023-04-19T00:42:21.128Z,17.70
2023-04-19T00:44:47.988Z,17.72
2023-04-19T00:47:14.528Z,17.70
2023-04-19T00:49:41.200Z,17.75
2023-04-19T00:52:07.639Z,17.65
2023-04-19T00:54:34.149Z,17.68
2023-04-19T00:57:00.616Z,17.70
2023-04-19T00:59:27.061Z,17.64
2023-04-19T01:01:53.687Z,17.63
2023-04-19T01:04:20.946Z,17.67
2023-04-19T01:06:49.325Z,17.67
2023-04-19T01:09:16.378Z,17.63
2023-04-19T01:11:43.632Z,17.61
2023-04-19T01:14:10.416Z,17.56
2023-04-19T01:16:37.099Z,17.59
2023-04-19T01:19:03.654Z,17.56
2023-04-19T01:21:30.774Z,17.58
2023-04-19T01:23:57.291Z,17.55
2023-04-19T01:26:23.857Z,17.52
2023-04-19T01:28:50.353Z,17.49
2023-04-19T01:31:16.862Z,17.46
2023-04-19T01:33:43.353Z,17.45
2023-04-19T01:36:09.870Z,17.46
2023-04-19T01:38:36.401Z,17.42
2023-04-19T01:41:02.928Z,17.39
2023-04-19T01:43:29.771Z,17.39
2023-04-19T01:45:56.250Z,17.36
2023-04-19T01:48:23.086Z,17.34
2023-04-19T01:50:49.574Z,17.35
2023-04-19T01:53:16.074Z,17.32
2023-04-19T01:55:42.768Z,17.27
2023-04-19T01:58:09.229Z,17.26
2023-04-19T02:00:35.926Z,17.21
2023-04-19T02:03:04.140Z,17.22
2023-04-19T02:05:30.766Z,17.18
2023-04-19T02:07:57.699Z,17.18
2023-04-19T02:10:24.307Z,17.16
2023-04-19T02:12:50.821Z,17.14
2023-04-19T02:15:17.288Z,17.11
2023-04-19T02:17:44.298Z,17.10
2023-04-19T02:20:11.318Z,17.10
2023-04-19T02:22:38.239Z,17.09
2023-04-19T02:25:05.129Z,17.08
2023-04-19T02:27:31.929Z,17.07
2023-04-19T02:29:58.566Z,17.05
2023-04-19T02:32:25.173Z,17.01
2023-04-19T02:34:51.717Z,17.02
2023-04-19T02:37:18.367Z,16.99
2023-04-19T02:39:44.965Z,16.98
2023-04-19T02:42:11.618Z,16.97
2023-04-19T02:44:38.064Z,16.94
2023-04-19T02:47:04.618Z,16.94
2023-04-19T02:49:31.337Z,16.94
2023-04-19T02:51:58.074Z,16.91
2023-04-19T02:54:24.620Z,16.91
2023-04-19T02:56:51.153Z,16.89
2023-04-19T02:59:17.698Z,16.87
2023-04-19T03:01:44.286Z,16.85
2023-04-19T03:04:10.803Z,16.85
2023-04-19T03:06:37.306Z,16.85
2023-04-19T03:09:03.756Z,16.84
2023-04-19T03:11:30.309Z,16.82
2023-04-19T03:13:56.749Z,16.81
2023-04-19T03:16:23.699Z,16.81
2023-04-19T03:18:50.555Z,16.80
2023-04-19T03:21:17.114Z,16.81
2023-04-19T03:23:43.610Z,16.79
2023-04-19T03:26:10.113Z,16.75
2023-04-19T03:28:36.656Z,16.76
2023-04-19T03:31:03.273Z,16.74
2023-04-19T03:33:30.054Z,16.73
2023-04-19T03:35:56.682Z,16.71
2023-04-19T03:38:23.200Z,16.70
2023-04-19T03:40:49.772Z,16.69
2023-04-19T03:43:16.279Z,16.67
2023-04-19T03:45:43.132Z,16.68
2023-04-19T03:48:09.607Z,16.65
2023-04-19T03:50:36.276Z,16.64
2023-04-19T03:53:02.830Z,16.65
2023-04-19T03:55:29.379Z,16.62
2023-04-19T03:57:55.897Z,16.61
2023-04-19T04:00:22.379Z,16.62
2023-04-19T04:02:51.444Z,16.58
2023-04-19T04:05:18.325Z,16.61
2023-04-19T04:07:44.862Z,16.61
2023-04-19T04:10:11.354Z,16.60
2023-04-19T04:12:37.951Z,16.55
2023-04-19T04:15:04.594Z,16.59
2023-04-19T04:17:31.317Z,16.58
2023-04-19T04:19:57.817Z,16.57
2023-04-19T04:22:24.364Z,16.58
2023-04-19T04:24:51.005Z,16.56
2023-04-19T04:27:17.502Z,16.56
2023-04-19T04:29:44.253Z,16.54
2023-04-19T04:32:11.371Z,16.58
2023-04-19T04:34:38.085Z,16.54
2023-04-19T04:37:04.576Z,16.54
2023-04-19T04:39:31.225Z,16.54
2023-04-19T04:41:57.768Z,16.55
2023-04-19T04:44:24.663Z,16.50
2023-04-19T04:46:51.306Z,16.52
2023-04-19T04:49:17.845Z,16.48
2023-04-19T04:51:44.509Z,16.49
2023-04-19T04:54:11.097Z,16.48
2023-04-19T04:56:37.714Z,16.49
2023-04-19T04:59:04.240Z,16.47
2023-04-19T05:01:30.687Z,16.46
2023-04-19T05:03:57.900Z,16.45
2023-04-19T05:06:24.578Z,16.43
2023-04-19T05:08:51.119Z,16.44
2023-04-19T05:11:17.597Z,16.44
2023-04-19T05:13:44.366Z,16.38
2023-04-19T05:16:10.935Z,16.45
2023-04-19T05:18:37.785Z,16.42
2023-04-19T05:21:05.000Z,16.42
2023-04-19T05:23:31.873Z,16.39
2023-04-19T05:25:58.355Z,16.39
2023-04-19T05:28:24.840Z,16.42
2023-04-19T05:30:51.606Z,16.41
2023-04-19T05:33:18.309Z,16.38
2023-04-19T05:35:45.173Z,16.36
2023-04-19T05:38:11.993Z,16.35
2023-04-19T05:40:38.431Z,16.30
2023-04-19T05:43:05.014Z,16.32
2023-04-19T05:45:31.705Z,16.33
2023-04-19T05:47:58.322Z,16.32
2023-04-19T05:50:25.084Z,16.33
2023-04-19T05:52:51.664Z,16.33
2023-04-19T05:55:18.335Z,16.30
2023-04-19T05:57:45.303Z,16.28
2023-04-19T06:00:12.069Z,16.28
2023-04-19T06:02:38.672Z,16.26
2023-04-19T06:05:09.999Z,16.27
2023-04-19T06:07:43.228Z,16.26
2023-04-19T06:10:13.400Z,16.27
2023-04-19T06:12:40.027Z,16.26
2023-04-19T06:15:06.583Z,16.25
2023-04-19T06:17:33.284Z,16.26
2023-04-19T06:19:59.811Z,16.26
2023-04-19T06:22:26.285Z,16.26
2023-04-19T06:24:52.994Z,16.27
2023-04-19T06:27:19.531Z,16.22
2023-04-19T06:29:46.001Z,16.25
2023-04-19T06:32:12.790Z,16.24
2023-04-19T06:34:39.486Z,16.23
2023-04-19T06:37:06.162Z,16.21
2023-04-19T06:39:32.654Z,16.22
2023-04-19T06:41:59.614Z,16.20
2023-04-19T06:44:25.987Z,16.17
2023-04-19T06:46:52.571Z,16.18
2023-04-19T06:49:19.086Z,16.18
2023-04-19T06:51:45.613Z,16.17
2023-04-19T06:54:12.482Z,16.19
2023-04-19T06:56:39.682Z,16.17
2023-04-19T06:59:06.198Z,16.18
2023-04-19T07:01:32.899Z,16.15
2023-04-19T07:03:59.628Z,16.14
2023-04-19T07:06:26.189Z,16.14
2023-04-19T07:08:52.907Z,16.11
2023-04-19T07:11:20.485Z,16.13
2023-04-19T07:13:48.671Z,16.12
2023-04-19T07:16:15.200Z,16.14
2023-04-19T07:18:41.967Z,16.15
2023-04-19T07:21:08.402Z,16.12
2023-04-19T07:23:35.254Z,16.14
2023-04-19T07:26:01.646Z,16.12
2023-04-19T07:28:28.129Z,16.13
2023-04-19T07:30:54.566Z,16.11
2023-04-19T07:33:20.983Z,16.11
2023-04-19T07:35:47.733Z,16.10
2023-04-19T07:38:14.123Z,16.06
2023-04-19T07:40:41.012Z,16.09
2023-04-19T07:43:07.297Z,16.08
2023-04-19T07:45:33.796Z,16.08
2023-04-19T07:48:00.252Z,16.06
2023-04-19T07:50:26.650Z,16.05
2023-04-19T07:52:53.043Z,16.05
2023-04-19T07:55:19.918Z,16.07
2023-04-19T07:57:46.357Z,16.06
2023-04-19T08:00:12.654Z,16.05
2023-04-19T08:02:39.317Z,16.03
2023-04-19T08:05:06.171Z,16.01
2023-04-19T08:07:32.819Z,16.00
2023-04-19T08:09:59.137Z,16.02
2023-04-19T08:12:35.135Z,16.03
2023-04-19T08:15:19.670Z,16.00
2023-04-19T08:17:51.742Z,16.01
2023-04-19T08:20:18.135Z,15.99
2023-04-19T08:22:44.565Z,16.02
2023-04-19T08:25:10.966Z,16.01
2023-04-19T08:27:37.315Z,16.03
2023-04-19T08:30:03.674Z,16.02
2023-04-19T08:32:30.254Z,16.03
2023-04-19T08:34:56.684Z,16.01
2023-04-19T08:37:23.049Z,16.00
2023-04-19T08:39:49.488Z,15.98
2023-04-19T08:42:28.811Z,16.01
2023-04-19T08:48:00.780Z,16.02
2023-04-19T08:50:33.252Z,16.03
2023-04-19T08:53:09.056Z,15.97
2023-04-19T08:56:06.992Z,16.02
2023-04-19T08:58:46.578Z,15.98
2023-04-19T09:01:31.093Z,15.97
2023-04-19T09:04:10.176Z,15.96
2023-04-19T09:06:43.752Z,15.97
2023-04-19T09:09:16.953Z,15.98
2023-04-19T09:11:51.110Z,15.96
2023-04-19T09:14:17.516Z,15.96
2023-04-19T09:16:43.921Z,15.95
2023-04-19T09:19:23.360Z,15.94
2023-04-19T09:21:51.103Z,15.93
2023-04-19T09:24:17.462Z,15.91
2023-04-19T09:26:43.825Z,15.92
2023-04-19T09:29:11.102Z,15.93
2023-04-19T09:34:07.829Z,15.97
2023-04-19T09:36:34.688Z,15.94
2023-04-19T09:39:01.003Z,15.95
2023-04-19T09:41:27.506Z,15.94
2023-04-19T09:44:11.741Z,15.91
2023-04-19T09:46:40.644Z,15.93
2023-04-19T09:49:21.216Z,15.91
2023-04-19T09:51:53.869Z,15.91
2023-04-19T09:54:20.219Z,15.91
2023-04-19T09:56:47.019Z,15.93
2023-04-19T09:59:20.649Z,15.90
2023-04-19T10:01:47.940Z,15.89
2023-04-19T10:04:25.864Z,15.93
2023-04-19T10:07:25.333Z,15.90
2023-04-19T10:09:52.913Z,15.92
2023-04-19T10:14:57.594Z,15.93
2023-04-19T10:17:23.932Z,15.95
2023-04-19T10:19:50.429Z,15.96
2023-04-19T10:22:16.796Z,15.94
2023-04-19T10:24:44.656Z,15.94
2023-04-19T10:27:11.948Z,15.93
2023-04-19T10:29:38.551Z,15.94
2023-04-19T10:32:04.943Z,15.92
2023-04-19T10:34:31.915Z,15.94
2023-04-19T10:36:58.365Z,15.95
2023-04-19T10:39:25.028Z,15.93
2023-04-19T10:41:51.606Z,15.91
2023-04-19T10:44:17.906Z,15.90
2023-04-19T10:46:44.269Z,15.90
2023-04-19T10:49:11.178Z,15.90
2023-04-19T10:51:38.264Z,15.91
2023-04-19T10:54:05.022Z,15.90
2023-04-19T10:56:31.881Z,15.87
2023-04-19T10:58:58.446Z,15.88
2023-04-19T11:01:24.834Z,15.83
2023-04-19T11:03:51.372Z,15.81
2023-04-19T11:06:17.828Z,15.79
2023-04-19T11:08:44.499Z,15.80
2023-04-19T11:11:11.233Z,15.80
2023-04-19T11:13:37.577Z,15.80
2023-04-19T11:16:04.266Z,15.78
2023-04-19T11:18:30.788Z,15.77
2023-04-19T11:20:57.620Z,15.77
2023-04-19T11:23:23.960Z,15.77
2023-04-19T11:25:51.132Z,15.77
2023-04-19T11:28:17.595Z,15.77
2023-04-19T11:30:44.283Z,15.77
2023-04-19T11:33:10.600Z,15.76
2023-04-19T11:35:37.389Z,15.75
2023-04-19T11:38:04.495Z,15.75
2023-04-19T11:40:30.972Z,15.76
2023-04-19T11:42:57.337Z,15.76
2023-04-19T11:47:53.425Z,15.76
2023-04-19T11:50:19.983Z,15.75
2023-04-19T11:52:46.405Z,15.76
2023-04-19T11:55:13.000Z,15.77
2023-04-19T11:57:41.524Z,15.76
2023-04-19T12:00:08.339Z,15.77
2023-04-19T12:02:35.249Z,15.77
2023-04-19T12:05:02.062Z,15.77
2023-04-19T12:07:28.937Z,15.76
2023-04-19T12:09:55.428Z,15.77
2023-04-19T12:12:21.846Z,15.77
2023-04-19T12:14:48.188Z,15.78
2023-04-19T12:17:14.806Z,15.78
2023-04-19T12:19:41.615Z,15.77
2023-04-19T12:22:08.121Z,15.79
2023-04-19T12:24:34.427Z,15.80
2023-04-19T12:27:01.898Z,15.81
2023-04-19T12:29:29.603Z,15.82
2023-04-19T12:31:56.093Z,15.81
2023-04-19T12:34:22.639Z,15.81
2023-04-19T12:36:49.261Z,15.81
2023-04-19T12:39:16.065Z,15.85
2023-04-19T12:41:42.549Z,15.82
2023-04-19T12:44:08.867Z,15.82
2023-04-19T12:46:35.706Z,15.82
2023-04-19T12:49:02.263Z,15.84
2023-04-19T12:51:28.793Z,15.85
2023-04-19T12:53:55.227Z,15.85
2023-04-19T12:56:21.940Z,15.83
2023-04-19T12:58:48.540Z,15.83
2023-04-19T13:01:15.012Z,15.82
2023-04-19T13:03:41.823Z,15.79
2023-04-19T13:06:08.338Z,15.80
2023-04-19T13:08:44.854Z,15.80
2023-04-19T13:11:13.003Z,15.80
2023-04-19T13:13:39.332Z,15.77
2023-04-19T13:16:05.856Z,15.78
2023-04-19T13:18:32.221Z,15.78
2023-04-19T13:20:59.170Z,15.79
2023-04-19T13:23:25.532Z,15.79
2023-04-19T13:25:51.932Z,15.79
2023-04-19T13:28:18.261Z,15.78
2023-04-19T13:30:45.045Z,15.81
2023-04-19T13:33:11.468Z,15.83
2023-04-19T13:35:37.976Z,15.81
2023-04-19T13:38:04.435Z,15.82
2023-04-19T13:40:30.959Z,15.81
2023-04-19T13:42:57.386Z,15.81
2023-04-19T13:45:23.743Z,15.81
2023-04-19T13:47:50.141Z,15.81
2023-04-19T13:50:16.463Z,15.80
2023-04-19T13:52:43.038Z,15.80
2023-04-19T13:55:09.514Z,15.80
2023-04-19T13:57:36.214Z,15.79
2023-04-19T14:00:02.661Z,15.80
2023-04-19T14:02:29.721Z,15.80
2023-04-19T14:04:56.138Z,15.79
2023-04-19T14:07:22.641Z,15.80
2023-04-19T14:09:49.547Z,15.80
2023-04-19T14:12:16.550Z,15.79
2023-04-19T14:14:42.865Z,15.79
2023-04-19T14:17:09.588Z,15.79
2023-04-19T14:19:35.915Z,15.78
2023-04-19T14:22:02.236Z,15.78
2023-04-19T14:24:28.986Z,15.78
2023-04-19T14:27:07.247Z,15.77
2023-04-19T14:29:36.911Z,15.78
2023-04-19T14:32:17.206Z,15.77
2023-04-19T14:34:49.620Z,15.76
2023-04-19T14:37:16.023Z,15.76
2023-04-19T14:39:42.739Z,15.76
2023-04-19T14:42:09.572Z,15.76
2023-04-19T14:44:35.955Z,15.76
2023-04-19T14:47:02.694Z,15.76
2023-04-19T14:49:29.036Z,15.76
2023-04-19T14:51:55.338Z,15.75
2023-04-19T14:54:22.071Z,15.74
2023-04-19T14:56:48.447Z,15.74
2023-04-19T14:59:15.096Z,15.75
2023-04-19T15:01:42.167Z,15.74
2023-04-19T15:04:08.917Z,15.73
2023-04-19T15:06:35.397Z,15.74
2023-04-19T15:09:02.061Z,15.72
2023-04-19T15:11:28.474Z,15.73
2023-04-19T15:13:54.945Z,15.71
2023-04-19T15:16:21.425Z,15.73
2023-04-19T15:18:48.374Z,15.72
2023-04-19T15:21:15.062Z,15.71
2023-04-19T15:23:42.198Z,15.72
2023-04-19T15:26:08.591Z,15.72
2023-04-19T15:28:35.359Z,15.73
2023-04-19T15:31:01.803Z,15.74
2023-04-19T15:33:28.665Z,15.74
2023-04-19T15:35:54.964Z,15.75
2023-04-19T15:38:21.467Z,15.77
2023-04-19T15:40:48.512Z,15.75
2023-04-19T15:43:15.392Z,15.75
2023-04-19T15:45:42.377Z,15.75
2023-04-19T15:48:08.732Z,15.75
2023-04-19T15:50:35.296Z,15.75
2023-04-19T15:53:01.924Z,15.75
2023-04-19T15:55:28.486Z,15.76
2023-04-19T15:57:55.236Z,15.77
2023-04-19T16:00:21.553Z,15.76
2023-04-19T16:02:48.336Z,15.75
2023-04-19T16:05:15.047Z,15.75
2023-04-19T16:07:41.513Z,15.76
2023-04-19T16:10:07.837Z,15.76
2023-04-19T16:12:34.539Z,15.76
2023-04-19T16:15:01.290Z,15.76
2023-04-19T16:17:28.188Z,15.76
2023-04-19T16:19:54.677Z,15.76
2023-04-19T16:22:21.033Z,15.76
2023-04-19T16:24:47.957Z,15.75
2023-04-19T16:27:14.324Z,15.76
2023-04-19T16:29:40.643Z,15.76
2023-04-19T16:32:07.228Z,15.76
2023-04-19T16:34:34.117Z,15.75
2023-04-19T16:37:00.934Z,15.77
2023-04-19T16:39:27.337Z,15.77
2023-04-19T16:41:53.988Z,15.76
2023-04-19T16:44:20.438Z,15.74
2023-04-19T16:46:46.731Z,15.75
2023-04-19T16:49:13.139Z,15.77
2023-04-19T16:51:40.311Z,15.76
2023-04-19T16:54:07.391Z,15.75
2023-04-19T16:56:33.820Z,15.74
2023-04-19T16:59:00.572Z,15.75
2023-04-19T17:01:26.991Z,15.75
2023-04-19T17:03:53.677Z,15.76
2023-04-19T17:06:20.762Z,15.76
2023-04-19T17:08:47.073Z,15.76
2023-04-19T17:11:14.115Z,15.75
2023-04-19T17:13:40.534Z,15.75
2023-04-19T17:16:07.309Z,15.75
2023-04-19T17:18:33.988Z,15.74
2023-04-19T17:21:00.822Z,15.74
2023-04-19T17:23:27.539Z,15.73
2023-04-19T17:25:54.068Z,15.76
2023-04-19T17:28:20.666Z,15.76
2023-04-19T17:30:47.449Z,15.75
2023-04-19T17:33:13.969Z,15.74
2023-04-19T17:35:40.313Z,15.74
2023-04-19T17:38:07.038Z,15.74
2023-04-19T17:40:33.844Z,15.74
2023-04-19T17:43:00.520Z,15.74
2023-04-19T17:45:27.038Z,15.73
2023-04-19T17:47:55.316Z,15.72
2023-04-19T17:50:22.492Z,15.73
2023-04-19T17:52:49.623Z,15.73
2023-04-19T17:55:16.252Z,15.73
2023-04-19T17:57:42.743Z,15.73
2023-04-19T18:00:09.089Z,15.73
2023-04-19T18:02:35.964Z,15.72
2023-04-19T18:05:02.763Z,15.74
2023-04-19T18:07:29.271Z,15.73
2023-04-19T18:09:55.588Z,15.73
2023-04-19T18:12:22.076Z,15.74
2023-04-19T18:14:48.418Z,15.72
2023-04-19T18:17:14.791Z,15.72
2023-04-19T18:19:41.533Z,15.73
2023-04-19T18:22:08.189Z,15.73
2023-04-19T18:24:34.696Z,15.71
2023-04-19T18:27:01.339Z,15.72
2023-04-19T18:29:27.657Z,15.73
2023-04-19T18:31:54.691Z,15.71
2023-04-19T18:34:21.556Z,15.71
2023-04-19T18:36:47.950Z,15.72
2023-04-19T18:39:14.459Z,15.73
2023-04-19T18:41:41.055Z,15.72
2023-04-19T18:44:34.758Z,15.72
2023-04-19T18:46:53.885Z,15.72
2023-04-19T18:49:20.320Z,15.71
2023-04-19T18:51:46.946Z,15.71
2023-04-19T18:54:13.574Z,15.70
2023-04-19T18:57:14.785Z,15.70
2023-04-19T18:59:26.537Z,15.71
2023-04-19T19:01:53.167Z,15.71
2023-04-19T19:04:37.186Z,15.70
2023-04-19T19:07:18.174Z,15.70
2023-04-19T19:09:56.164Z,15.70
2023-04-19T19:12:23.170Z,15.69
2023-04-19T19:14:49.663Z,15.70
2023-04-19T19:17:16.703Z,15.70
2023-04-19T19:19:43.139Z,15.68
2023-04-19T19:22:25.008Z,15.69
2023-04-19T19:24:54.036Z,15.69
2023-04-19T19:27:20.421Z,15.68
2023-04-19T19:29:47.034Z,15.70
2023-04-19T19:32:13.804Z,15.69
2023-04-19T19:34:53.770Z,15.69
2023-04-19T19:37:21.044Z,15.69
2023-04-19T19:39:47.359Z,15.68
2023-04-19T19:42:14.096Z,15.69
2023-04-19T19:44:41.131Z,15.67
2023-04-19T19:47:10.211Z,15.68
2023-04-19T19:49:49.523Z,15.66
2023-04-19T19:52:23.371Z,15.66
2023-04-19T19:54:49.833Z,15.68
2023-04-19T19:59:51.363Z,15.66
2023-04-19T20:02:19.458Z,15.66
2023-04-19T20:04:46.092Z,15.67
2023-04-19T20:07:28.853Z,15.69
2023-04-19T20:09:59.146Z,15.66
2023-04-19T20:12:25.552Z,15.67
2023-04-19T20:14:51.928Z,15.66
2023-04-19T20:17:18.941Z,15.66
2023-04-19T20:19:45.364Z,15.65
2023-04-19T20:22:11.713Z,15.64
2023-04-19T20:24:38.572Z,15.63
2023-04-19T20:27:05.020Z,15.63
2023-04-19T20:29:31.350Z,15.62
2023-04-19T20:31:57.841Z,15.66
2023-04-19T20:34:24.313Z,15.62
2023-04-19T20:36:50.644Z,15.62
2023-04-19T20:39:17.673Z,15.63
2023-04-19T20:41:44.079Z,15.64
2023-04-19T20:44:10.488Z,15.63
2023-04-19T20:46:37.022Z,15.64
2023-04-19T20:49:03.551Z,15.63
2023-04-19T20:51:30.343Z,15.63
2023-04-19T20:53:57.227Z,15.60
2023-04-19T20:56:23.765Z,15.59
2023-04-19T20:58:50.262Z,15.61
2023-04-19T21:01:16.638Z,15.59
2023-04-19T21:03:43.486Z,15.61
2023-04-19T21:06:10.305Z,15.60
2023-04-19T21:08:37.218Z,15.59
2023-04-19T21:11:03.614Z,15.60
2023-04-19T21:13:30.256Z,15.60
2023-04-19T21:15:56.622Z,15.59
2023-04-19T21:18:23.475Z,15.62
2023-04-19T21:20:49.985Z,15.60
2023-04-19T21:23:16.809Z,15.59
2023-04-19T21:25:43.993Z,15.58
2023-04-19T21:28:10.480Z,15.62
2023-04-19T21:30:36.792Z,15.62
2023-04-19T21:33:03.962Z,15.60
2023-04-19T21:35:30.631Z,15.59
2023-04-19T21:37:56.961Z,15.59
2023-04-19T21:40:23.380Z,15.60
2023-04-19T21:42:50.256Z,15.58
2023-04-19T21:45:17.085Z,15.59
2023-04-19T21:47:44.138Z,15.57
2023-04-19T21:50:11.357Z,15.57
2023-04-19T21:52:38.206Z,15.59
2023-04-19T21:55:05.034Z,15.58
2023-04-19T21:57:31.423Z,15.58
2023-04-19T21:59:58.264Z,15.57
2023-04-19T22:02:24.786Z,15.58
2023-04-19T22:04:51.551Z,15.59
2023-04-19T22:07:18.112Z,15.56
2023-04-19T22:09:44.420Z,15.56
2023-04-19T22:12:10.854Z,15.56
2023-04-19T22:14:37.154Z,15.53
2023-04-19T22:17:03.553Z,15.57
2023-04-19T22:19:30.275Z,15.57
2023-04-19T22:21:56.603Z,15.59
2023-04-19T22:24:23.025Z,15.54
2023-04-19T22:26:49.480Z,15.52
2023-04-19T22:29:16.309Z,15.54
2023-04-19T22:31:42.816Z,15.55
2023-04-19T22:34:09.280Z,15.54
2023-04-19T22:36:35.761Z,15.53
2023-04-19T22:39:03.097Z,15.53
2023-04-19T22:41:29.892Z,15.52
2023-04-19T22:43:56.416Z,15.50
2023-04-19T22:46:22.789Z,15.51
2023-04-19T22:48:49.188Z,15.52
2023-04-19T22:51:15.981Z,15.50
2023-04-19T22:53:42.324Z,15.48
2023-04-19T22:56:08.651Z,15.48
2023-04-19T22:58:35.112Z,15.52
2023-04-19T23:01:01.579Z,15.51
2023-04-19T23:03:28.150Z,15.49
2023-04-19T23:05:54.543Z,15.50
2023-04-19T23:08:21.285Z,15.47
2023-04-19T23:10:47.784Z,15.48
2023-04-19T23:13:14.212Z,15.49
2023-04-19T23:15:41.141Z,15.50
2023-04-19T23:18:07.616Z,15.47
2023-04-19T23:20:34.050Z,15.46
2023-04-19T23:23:00.915Z,15.46
2023-04-19T23:25:27.370Z,15.45
2023-04-19T23:27:54.591Z,15.46
2023-04-19T23:30:20.978Z,15.45
2023-04-19T23:32:47.548Z,15.48
2023-04-19T23:35:13.986Z,15.47
2023-04-19T23:37:40.718Z,15.46
2023-04-19T23:40:07.157Z,15.47
2023-04-19T23:42:33.705Z,15.47
2023-04-19T23:45:00.155Z,15.44
2023-04-19T23:47:26.777Z,15.44
2023-04-19T23:49:53.381Z,15.45
2023-04-19T23:52:19.743Z,15.42
2023-04-19T23:54:46.722Z,15.45
2023-04-19T23:57:13.097Z,15.43
2023-04-19T23:59:39.494Z,15.44
